Nancy M — WDF3398 — position and weather

sailwx.info

Track history (hours):
 
Tides and Currents Weather Stations Pressure Air Temp Water Temp Dewpoint Dewpoint Depression Visibility Wind Speed Wind Dir Waves Ship Positions

Nancy M

Owner: MANSON CONSTRUCTION CO., SEATTLE, WA. More information available from US FCC via Universal Licensing System and Coast Guard Vessel Documentation Center.

Last reported at 2017-Oct-16 22:24 UTC. Time now 2017-Oct-19 21:41 UTC.
Position N 47°33' W 122°21'.

Length 24 m; draft 4 m.

Type: Tug. MMSI: 367439390.

Date/timePositionNaut miles runAvg speedWind from/ knotsBaromVisibWave heightAir tempDewpointWater temp
2017-Oct-16 22:24N 47°33' W 122°21'0 0.0
2017-Oct-16 21:59N 47°33' W 122°21'1 1.6
2017-Oct-16 21:30N 47°34' W 122°21'1 1.9
2017-Oct-16 21:00N 47°35' W 122°22'0 0.1
2017-Oct-16 20:30N 47°35' W 122°22'1 1.7
2017-Oct-16 20:00N 47°34' W 122°21'1 1.6
2017-Oct-16 19:30N 47°33' W 122°20'0 0.2
2017-Oct-16 19:01N 47°33' W 122°21'0 0.1
2017-Oct-16 18:30N 47°33' W 122°21'0 0.1
2017-Oct-16 18:00N 47°33' W 122°21'0 0.1
2017-Oct-16 17:30N 47°33' W 122°21'0 0.0
2017-Oct-16 17:00N 47°33' W 122°21'0 0.0
2017-Oct-16 16:30N 47°33' W 122°21'0 0.0
2017-Oct-16 15:54N 47°33' W 122°21'0 0.0
2017-Oct-16 15:18N 47°33' W 122°21'0 0.0
2017-Oct-16 15:00N 47°33' W 122°21'0 0.0
2017-Oct-16 14:31N 47°33' W 122°21'0 0.0
2017-Oct-16 13:30N 47°33' W 122°21'1 2.8
2017-Oct-16 13:00N 47°35' W 122°22'3 5.6
2017-Oct-16 12:30N 47°33' W 122°25'611.4
2017-Oct-16 12:00N 47°28' W 122°24'510.9
2017-Oct-16 11:30N 47°23' W 122°21'611.3
2017-Oct-16 11:01N 47°19' W 122°27'3 6.3
2017-Oct-16 10:30N 47°16' W 122°24'1 1.7
2017-Oct-16 10:00N 47°17' W 122°25'4 7.3
2017-Oct-16 09:30N 47°20' W 122°27'5 9.5
2017-Oct-16 09:00N 47°24' W 122°22'510.1
2017-Oct-16 08:30N 47°29' W 122°24'510.5
2017-Oct-16 08:00N 47°34' W 122°25'3 5.3
2017-Oct-16 07:31N 47°35' W 122°22'1 2.7
2017-Oct-16 07:00N 47°33' W 122°21'  
2017-Oct-13 16:12N 47°33' W 122°21'0 0.1
2017-Oct-13 16:00N 47°33' W 122°21'2 3.1
2017-Oct-13 15:30N 47°35' W 122°22'0 0.3
2017-Oct-13 15:00N 47°35' W 122°22'2 3.3
2017-Oct-13 14:30N 47°33' W 122°21'0 0.0
2017-Oct-13 13:59N 47°33' W 122°21'0 0.0
2017-Oct-13 13:30N 47°33' W 122°21'  
2017-Oct-10 22:41N 47°33' W 122°21'0 0.0
2017-Oct-10 22:30N 47°33' W 122°21'0 0.0
2017-Oct-10 21:59N 47°33' W 122°21'0 0.0
2017-Oct-10 21:30N 47°33' W 122°21'0 0.0
2017-Oct-09 20:22N 47°33' W 122°21'2 4.8
2017-Oct-09 20:00N 47°35' W 122°22'2 3.3
2017-Oct-09 19:30N 47°33' W 122°21'0 0.0
2017-Oct-09 18:59N 47°33' W 122°21'0 0.0
2017-Oct-09 18:30N 47°33' W 122°21'0 0.0
2017-Oct-09 18:00N 47°33' W 122°21'0 0.0
2017-Oct-09 17:30N 47°33' W 122°21'0 0.0
2017-Oct-09 17:00N 47°33' W 122°21'0 0.0
2017-Oct-09 16:30N 47°33' W 122°21'  
Track history (hours):
 
Tides and Currents Weather Stations Pressure Air Temp Water Temp Dewpoint Dewpoint Depression Visibility Wind Speed Wind Dir Waves Ship Positions

Nancy M

Owner: MANSON CONSTRUCTION CO., SEATTLE, WA. More information available from US FCC via Universal Licensing System and Coast Guard Vessel Documentation Center.

Last reported at 2017-Oct-16 22:24 UTC. Time now 2017-Oct-19 21:41 UTC.
Position N 47°33' W 122°21'.

Length 24 m; draft 4 m.

Type: Tug. MMSI: 367439390.

Date/timePositionNaut miles runAvg speedWind from/ knotsBaromVisibWave heightAir tempDewpointWater temp
2017-Oct-16 22:24N 47°33' W 122°21'0 0.0
2017-Oct-16 21:59N 47°33' W 122°21'1 1.6
2017-Oct-16 21:30N 47°34' W 122°21'1 1.9
2017-Oct-16 21:00N 47°35' W 122°22'0 0.1
2017-Oct-16 20:30N 47°35' W 122°22'1 1.7
2017-Oct-16 20:00N 47°34' W 122°21'1 1.6
2017-Oct-16 19:30N 47°33' W 122°20'0 0.2
2017-Oct-16 19:01N 47°33' W 122°21'0 0.1
2017-Oct-16 18:30N 47°33' W 122°21'0 0.1
2017-Oct-16 18:00N 47°33' W 122°21'0 0.1
2017-Oct-16 17:30N 47°33' W 122°21'0 0.0
2017-Oct-16 17:00N 47°33' W 122°21'0 0.0
2017-Oct-16 16:30N 47°33' W 122°21'0 0.0
2017-Oct-16 15:54N 47°33' W 122°21'0 0.0
2017-Oct-16 15:18N 47°33' W 122°21'0 0.0
2017-Oct-16 15:00N 47°33' W 122°21'0 0.0
2017-Oct-16 14:31N 47°33' W 122°21'0 0.0
2017-Oct-16 13:30N 47°33' W 122°21'1 2.8
2017-Oct-16 13:00N 47°35' W 122°22'3 5.6
2017-Oct-16 12:30N 47°33' W 122°25'611.4
2017-Oct-16 12:00N 47°28' W 122°24'510.9
2017-Oct-16 11:30N 47°23' W 122°21'611.3
2017-Oct-16 11:01N 47°19' W 122°27'3 6.3
2017-Oct-16 10:30N 47°16' W 122°24'1 1.7
2017-Oct-16 10:00N 47°17' W 122°25'4 7.3
2017-Oct-16 09:30N 47°20' W 122°27'5 9.5
2017-Oct-16 09:00N 47°24' W 122°22'510.1
2017-Oct-16 08:30N 47°29' W 122°24'510.5
2017-Oct-16 08:00N 47°34' W 122°25'3 5.3
2017-Oct-16 07:31N 47°35' W 122°22'1 2.7
2017-Oct-16 07:00N 47°33' W 122°21'  
2017-Oct-13 16:12N 47°33' W 122°21'0 0.1
2017-Oct-13 16:00N 47°33' W 122°21'2 3.1
2017-Oct-13 15:30N 47°35' W 122°22'0 0.3
2017-Oct-13 15:00N 47°35' W 122°22'2 3.3
2017-Oct-13 14:30N 47°33' W 122°21'0 0.0
2017-Oct-13 13:59N 47°33' W 122°21'0 0.0
2017-Oct-13 13:30N 47°33' W 122°21'  
2017-Oct-10 22:41N 47°33' W 122°21'0 0.0
2017-Oct-10 22:30N 47°33' W 122°21'0 0.0
2017-Oct-10 21:59N 47°33' W 122°21'0 0.0
2017-Oct-10 21:30N 47°33' W 122°21'0 0.0
2017-Oct-09 20:22N 47°33' W 122°21'2 4.8
2017-Oct-09 20:00N 47°35' W 122°22'2 3.3
2017-Oct-09 19:30N 47°33' W 122°21'0 0.0
2017-Oct-09 18:59N 47°33' W 122°21'0 0.0
2017-Oct-09 18:30N 47°33' W 122°21'0 0.0
2017-Oct-09 18:00N 47°33' W 122°21'0 0.0
2017-Oct-09 17:30N 47°33' W 122°21'0 0.0
2017-Oct-09 17:00N 47°33' W 122°21'0 0.0
2017-Oct-09 16:30N 47°33' W 122°21'  

Dump ship's entire track history